La Violeta, Argentina
Current Conditions -  °F | °C
As of 9:00 PM on Wednesday 26 Nov 2014 (Local Time) from SAAR Reporting Station
Clear Clear  
Wind Chill: 70°   Ceiling: Unl
Heat Index: 70°   Visibility: 6mi
Dew Point: 57°   Wind: 3mph
Humidity: 64%   Direction: 110°ESE
Pressure: 29.91"   Gusts: NA
Location:  33.73°S, 60.17°W
Report Text: SAAR 270000Z 11003KT CAVOK 21/14 Q1013
Loading
Personal Weather Stations






























Interactive Weather Map New forecast layout! Learn more

10-Day Weather Forecast

Advertisements
Track Severe Weather on mobile